createdAt,value
2019-02-04T00:01:00.755Z,7.93
2019-02-04T00:03:30.561Z,8.80
2019-02-04T00:06:00.157Z,5.80
2019-02-04T00:08:29.935Z,5.20
2019-02-04T00:10:59.546Z,11.53
2019-02-04T00:13:29.269Z,9.90
2019-02-04T00:15:58.979Z,16.40
2019-02-04T00:18:28.710Z,8.03
2019-02-04T00:20:58.224Z,12.83
2019-02-04T00:23:27.871Z,12.03
2019-02-04T00:25:57.412Z,19.17
2019-02-04T00:28:26.978Z,11.23
2019-02-04T00:30:56.535Z,9.13
2019-02-04T00:33:26.099Z,9.87
2019-02-04T00:35:55.959Z,10.63
2019-02-04T00:38:25.571Z,11.27
2019-02-04T00:40:55.076Z,6.63
2019-02-04T00:43:24.619Z,15.67
2019-02-04T00:45:54.180Z,11.00
2019-02-04T00:48:23.781Z,9.93
2019-02-04T00:50:53.506Z,8.13
2019-02-04T00:53:22.984Z,8.90
2019-02-04T00:55:52.622Z,6.60
2019-02-04T00:58:22.264Z,8.70
2019-02-04T01:00:51.877Z,5.10
2019-02-04T01:03:21.688Z,6.67
2019-02-04T01:05:51.266Z,8.40
2019-02-04T01:08:20.795Z,6.97
2019-02-04T01:10:50.419Z,7.43
2019-02-04T01:13:20.068Z,17.37
2019-02-04T01:15:49.671Z,12.70
2019-02-04T01:18:19.858Z,11.87
2019-02-04T01:20:49.449Z,6.43
2019-02-04T01:23:19.077Z,8.87
2019-02-04T01:25:48.717Z,8.37
2019-02-04T01:28:18.301Z,10.60
2019-02-04T01:30:47.816Z,5.50
2019-02-04T01:33:17.365Z,10.80
2019-02-04T01:35:46.890Z,9.37
2019-02-04T01:38:16.484Z,14.50
2019-02-04T01:40:46.004Z,9.33
2019-02-04T01:43:15.531Z,10.77
2019-02-04T01:45:45.549Z,14.33
2019-02-04T01:48:15.319Z,9.10
2019-02-04T01:50:44.862Z,14.33
2019-02-04T01:53:14.373Z,12.67
2019-02-04T01:55:43.879Z,10.00
2019-02-04T01:58:13.632Z,9.23
2019-02-04T02:00:43.415Z,8.27
2019-02-04T02:03:13.049Z,7.30
2019-02-04T02:05:42.581Z,12.70
2019-02-04T02:08:12.108Z,14.40
2019-02-04T02:10:41.715Z,24.57
2019-02-04T02:13:11.887Z,10.27
2019-02-04T02:15:41.356Z,12.63
2019-02-04T02:18:10.971Z,12.87
2019-02-04T02:20:40.461Z,16.67
2019-02-04T02:23:16.794Z,14.87
2019-02-04T02:25:48.451Z,14.50
2019-02-04T02:28:18.020Z,13.30
2019-02-04T02:30:47.559Z,6.70
2019-02-04T02:33:17.106Z,11.13
2019-02-04T02:35:46.625Z,11.47
2019-02-04T02:38:17.339Z,9.67
2019-02-04T02:40:46.984Z,12.07
2019-02-04T02:43:16.508Z,16.83
2019-02-04T02:45:46.016Z,10.87
2019-02-04T02:48:15.570Z,12.73
2019-02-04T02:50:45.118Z,16.40
2019-02-04T02:53:14.604Z,13.27
2019-02-04T02:55:44.244Z,18.00
2019-02-04T02:58:13.864Z,7.63
2019-02-04T03:00:43.407Z,11.60
2019-02-04T03:03:13.057Z,14.93
2019-02-04T03:05:42.595Z,12.27
2019-02-04T03:08:12.399Z,17.80
2019-02-04T03:10:42.220Z,14.40
2019-02-04T03:13:12.096Z,12.30
2019-02-04T03:15:42.208Z,15.70
2019-02-04T03:18:11.927Z,15.30
2019-02-04T03:20:41.720Z,9.33
2019-02-04T03:23:11.764Z,11.17
2019-02-04T03:25:41.834Z,11.33
2019-02-04T03:28:11.509Z,13.60
2019-02-04T03:30:41.034Z,13.60
2019-02-04T03:33:10.513Z,14.13
2019-02-04T03:35:40.009Z,11.30
2019-02-04T03:38:09.887Z,14.83
2019-02-04T03:40:39.393Z,16.73
2019-02-04T03:43:08.917Z,15.17
2019-02-04T03:45:38.469Z,10.97
2019-02-04T03:48:09.403Z,11.27
2019-02-04T03:50:39.313Z,11.53
2019-02-04T03:53:08.854Z,13.90
2019-02-04T03:55:38.511Z,26.63
2019-02-04T03:58:08.047Z,14.47
2019-02-04T04:00:37.615Z,19.97
2019-02-04T04:03:07.657Z,12.20
2019-02-04T04:05:37.282Z,16.60
2019-02-04T04:08:06.985Z,18.33
2019-02-04T04:10:36.584Z,17.63
2019-02-04T04:13:06.412Z,27.03
2019-02-04T04:15:35.979Z,23.87
2019-02-04T04:18:15.368Z,17.43
2019-02-04T04:20:37.782Z,12.67
2019-02-04T04:23:07.390Z,16.20
2019-02-04T04:25:37.112Z,21.20
2019-02-04T04:28:06.819Z,17.37
2019-02-04T04:30:37.605Z,13.30
2019-02-04T04:33:07.077Z,19.33
2019-02-04T04:35:36.671Z,14.70
2019-02-04T04:38:06.344Z,20.57
2019-02-04T04:40:36.067Z,21.30
2019-02-04T04:43:05.570Z,18.30
2019-02-04T04:45:35.385Z,15.77
2019-02-04T04:48:04.883Z,12.40
2019-02-04T04:50:34.422Z,18.20
2019-02-04T04:53:03.903Z,17.87
2019-02-04T04:55:33.480Z,14.23
2019-02-04T04:58:02.958Z,12.07
2019-02-04T05:00:32.576Z,23.23
2019-02-04T05:03:02.142Z,19.27
2019-02-04T05:05:31.720Z,17.73
2019-02-04T05:08:01.215Z,10.93
2019-02-04T05:10:30.835Z,11.67
2019-02-04T05:13:00.548Z,13.43
2019-02-04T05:15:30.117Z,12.40
2019-02-04T05:17:59.572Z,15.70
2019-02-04T05:20:29.093Z,15.63
2019-02-04T05:22:58.603Z,12.60
2019-02-04T05:25:28.413Z,17.13
2019-02-04T05:27:58.113Z,13.10
2019-02-04T05:30:27.640Z,17.10
2019-02-04T05:32:57.148Z,14.23
2019-02-04T05:35:26.743Z,14.83
2019-02-04T05:37:56.252Z,18.33
2019-02-04T05:40:25.744Z,12.03
2019-02-04T05:42:55.268Z,15.27
2019-02-04T05:45:25.113Z,15.23
2019-02-04T05:48:00.894Z,16.97
2019-02-04T05:50:30.480Z,17.10
2019-02-04T05:53:00.170Z,12.43
2019-02-04T05:55:30.679Z,16.40
2019-02-04T05:58:00.441Z,8.60
2019-02-04T06:00:34.323Z,14.63
2019-02-04T06:03:04.044Z,14.40
2019-02-04T06:05:33.556Z,20.73
2019-02-04T06:08:03.307Z,16.50
2019-02-04T06:10:32.854Z,14.33
2019-02-04T06:13:02.409Z,11.10
2019-02-04T06:15:32.021Z,12.73
2019-02-04T06:18:01.599Z,14.73
2019-02-04T06:20:31.143Z,16.13
2019-02-04T06:23:00.673Z,13.53
2019-02-04T06:25:30.189Z,20.07
2019-02-04T06:28:00.063Z,12.70
2019-02-04T06:30:29.537Z,11.67
2019-02-04T06:32:59.357Z,10.53
2019-02-04T06:35:29.399Z,17.27
2019-02-04T06:37:59.031Z,12.57
2019-02-04T06:40:28.575Z,12.97
2019-02-04T06:42:58.151Z,12.90
2019-02-04T06:45:27.660Z,11.53
2019-02-04T06:47:57.313Z,9.83
2019-02-04T06:50:28.214Z,12.40
2019-02-04T06:52:57.657Z,12.03
2019-02-04T06:55:33.910Z,12.37
2019-02-04T06:58:03.363Z,15.70
2019-02-04T07:00:33.158Z,15.40
2019-02-04T07:03:03.142Z,21.77
2019-02-04T07:05:43.159Z,14.53
2019-02-04T07:08:04.032Z,11.77
2019-02-04T07:10:33.573Z,13.77
2019-02-04T07:13:03.251Z,19.50
2019-02-04T07:15:32.960Z,14.13
2019-02-04T07:18:02.446Z,22.03
2019-02-04T07:20:32.028Z,13.67
2019-02-04T07:23:01.483Z,11.93
2019-02-04T07:25:31.166Z,10.87
2019-02-04T07:28:09.063Z,14.70
2019-02-04T07:30:39.144Z,18.03
2019-02-04T07:33:08.626Z,15.00
2019-02-04T07:35:38.152Z,11.93
2019-02-04T07:38:07.742Z,13.27
2019-02-04T07:40:37.279Z,10.67
2019-02-04T07:43:06.793Z,13.67
2019-02-04T07:45:36.717Z,14.20
2019-02-04T07:48:06.303Z,11.43
2019-02-04T07:50:35.799Z,11.17
2019-02-04T07:53:05.300Z,13.00
2019-02-04T07:55:34.889Z,11.80
2019-02-04T07:58:04.424Z,16.13
2019-02-04T08:00:34.297Z,20.90
2019-02-04T08:03:03.966Z,18.43
2019-02-04T08:05:33.516Z,18.40
2019-02-04T08:08:03.037Z,13.43
2019-02-04T08:10:32.527Z,10.37
2019-02-04T08:13:02.453Z,18.07
2019-02-04T08:15:36.810Z,13.03
2019-02-04T08:18:07.026Z,14.33
2019-02-04T08:20:36.600Z,15.13
2019-02-04T08:23:06.137Z,10.53
2019-02-04T08:25:35.714Z,14.97
2019-02-04T08:28:05.264Z,11.80
2019-02-04T08:30:38.341Z,13.60
2019-02-04T08:33:07.613Z,12.87
2019-02-04T08:35:37.142Z,16.83
2019-02-04T08:38:06.754Z,17.20
2019-02-04T08:40:36.738Z,16.97
2019-02-04T08:43:06.584Z,13.67
2019-02-04T08:45:36.032Z,18.00
2019-02-04T08:48:05.728Z,14.27
2019-02-04T08:50:35.241Z,16.47
2019-02-04T08:53:04.849Z,15.87
2019-02-04T08:55:34.831Z,15.93
2019-02-04T08:58:04.715Z,18.17
2019-02-04T09:00:35.242Z,14.27
2019-02-04T09:03:04.770Z,18.37
2019-02-04T09:05:34.494Z,15.17
2019-02-04T09:08:04.102Z,20.53
2019-02-04T09:10:34.056Z,18.07
2019-02-04T09:13:03.632Z,12.47
2019-02-04T09:15:33.181Z,15.27
2019-02-04T09:18:02.828Z,16.10
2019-02-04T09:20:32.352Z,15.13
2019-02-04T09:23:01.965Z,15.80
2019-02-04T09:25:31.952Z,15.00
2019-02-04T09:28:01.579Z,16.67
2019-02-04T09:30:31.297Z,17.70
2019-02-04T09:33:00.824Z,17.50
2019-02-04T09:35:30.404Z,16.53
2019-02-04T09:37:59.917Z,16.00
2019-02-04T09:40:32.834Z,19.93
2019-02-04T09:43:02.438Z,19.90
2019-02-04T09:45:32.040Z,17.87
2019-02-04T09:48:01.936Z,16.63
2019-02-04T09:50:43.011Z,16.17
2019-02-04T09:53:12.663Z,15.87
2019-02-04T09:55:42.172Z,16.57
2019-02-04T09:58:11.704Z,16.97
2019-02-04T10:00:41.166Z,15.93
2019-02-04T10:03:10.914Z,16.50
2019-02-04T10:05:40.624Z,24.07
2019-02-04T10:08:10.475Z,23.57
2019-02-04T10:10:40.110Z,15.20
2019-02-04T10:13:09.664Z,15.97
2019-02-04T10:15:42.281Z,20.23
2019-02-04T10:18:12.368Z,14.33
2019-02-04T10:20:42.394Z,15.40
2019-02-04T10:23:11.942Z,21.47
2019-02-04T10:25:43.175Z,19.50
2019-02-04T10:28:14.953Z,16.13
2019-02-04T10:30:44.909Z,19.53
2019-02-04T10:33:14.802Z,18.43
2019-02-04T10:35:44.391Z,17.77
2019-02-04T10:38:16.379Z,19.07
2019-02-04T10:40:45.281Z,19.83
2019-02-04T10:43:15.051Z,18.33
2019-02-04T10:45:44.733Z,15.87
2019-02-04T10:48:14.323Z,18.30
2019-02-04T10:50:46.708Z,13.67
2019-02-04T10:53:17.147Z,13.27
2019-02-04T10:55:46.845Z,14.53
2019-02-04T10:58:16.475Z,16.93
2019-02-04T11:00:46.465Z,20.37
2019-02-04T11:03:16.040Z,17.43
2019-02-04T11:05:45.715Z,18.63
2019-02-04T11:08:15.308Z,18.50
2019-02-04T11:10:44.740Z,17.00
2019-02-04T11:13:16.087Z,17.97
2019-02-04T11:15:45.983Z,20.13
2019-02-04T11:18:16.189Z,17.57
2019-02-04T11:20:57.237Z,18.07
2019-02-04T11:23:17.082Z,17.40
2019-02-04T11:25:46.846Z,19.53
2019-02-04T11:28:16.914Z,17.17
2019-02-04T11:30:49.597Z,17.53
2019-02-04T11:33:19.184Z,18.00
2019-02-04T11:35:48.699Z,17.50
2019-02-04T11:38:18.755Z,18.33
2019-02-04T11:40:48.750Z,17.13
2019-02-04T11:43:18.748Z,14.80
2019-02-04T11:45:48.413Z,15.83
2019-02-04T11:48:18.527Z,17.07
2019-02-04T11:50:48.060Z,18.00
2019-02-04T11:53:17.697Z,17.47
2019-02-04T11:55:47.728Z,14.60
2019-02-04T11:58:17.398Z,18.53
2019-02-04T12:00:47.040Z,17.07
2019-02-04T12:03:16.824Z,14.53
2019-02-04T12:05:46.531Z,19.20
2019-02-04T12:08:16.456Z,15.87
2019-02-04T12:10:49.445Z,16.20
2019-02-04T12:13:19.362Z,16.37
2019-02-04T12:15:49.133Z,16.10
2019-02-04T12:18:18.655Z,16.10
2019-02-04T12:20:48.546Z,16.53
2019-02-04T12:23:18.369Z,20.23
2019-02-04T12:25:48.246Z,18.43
2019-02-04T12:28:18.425Z,18.73
2019-02-04T12:30:48.249Z,18.47
2019-02-04T12:33:18.017Z,19.43
2019-02-04T12:35:47.896Z,18.53
2019-02-04T12:38:18.173Z,18.87
2019-02-04T12:40:47.859Z,19.33
2019-02-04T12:43:17.316Z,19.10
2019-02-04T12:45:47.030Z,19.13
2019-02-04T12:48:16.655Z,18.77
2019-02-04T12:50:46.513Z,21.20
2019-02-04T12:53:16.171Z,19.57
2019-02-04T12:55:45.732Z,21.37
2019-02-04T12:58:15.397Z,19.13
2019-02-04T13:00:45.200Z,22.13
2019-02-04T13:03:14.696Z,20.23
2019-02-04T13:05:49.468Z,19.13
2019-02-04T13:08:18.937Z,25.03
2019-02-04T13:10:48.544Z,20.00
2019-02-04T13:13:18.730Z,24.90
2019-02-04T13:15:48.221Z,16.33
2019-02-04T13:18:17.701Z,17.33
2019-02-04T13:20:47.397Z,18.13
2019-02-04T13:23:17.074Z,22.47
2019-02-04T13:25:46.675Z,19.53
2019-02-04T13:28:17.252Z,21.13
2019-02-04T13:30:46.882Z,19.77
2019-02-04T13:33:16.527Z,22.73
2019-02-04T13:35:47.317Z,20.43
2019-02-04T13:38:16.883Z,19.90
2019-02-04T13:40:46.466Z,18.70
2019-02-04T13:43:16.038Z,23.33
2019-02-04T13:45:45.749Z,21.23
2019-02-04T13:48:15.582Z,19.37
2019-02-04T13:50:45.420Z,19.67
2019-02-04T13:53:14.887Z,19.77
2019-02-04T13:55:44.504Z,20.37
2019-02-04T13:58:14.544Z,17.57
2019-02-04T14:00:44.406Z,18.53
2019-02-04T14:03:13.894Z,16.80
2019-02-04T14:05:43.669Z,18.37
2019-02-04T14:08:13.399Z,17.23
2019-02-04T14:10:46.114Z,20.63
2019-02-04T14:13:14.948Z,18.03
2019-02-04T14:15:44.937Z,19.33
2019-02-04T14:18:14.740Z,18.57
2019-02-04T14:20:44.461Z,18.73
2019-02-04T14:23:14.212Z,20.07
2019-02-04T14:25:44.154Z,17.23
2019-02-04T14:28:13.985Z,13.20
2019-02-04T14:30:43.746Z,19.83
2019-02-04T14:33:13.336Z,19.27
2019-02-04T14:35:43.345Z,24.77
2019-02-04T14:38:12.824Z,21.17
2019-02-04T14:40:42.334Z,20.73
2019-02-04T14:43:23.972Z,18.10
2019-02-04T14:45:56.970Z,16.63
2019-02-04T14:48:52.652Z,19.43
2019-02-04T14:51:52.700Z,18.83
2019-02-04T14:55:01.679Z,16.70
2019-02-04T14:57:40.235Z,14.57
2019-02-04T15:00:21.973Z,14.27
2019-02-04T15:03:19.409Z,16.03
2019-02-04T15:05:53.471Z,17.23
2019-02-04T15:08:38.438Z,14.93
2019-02-04T15:11:26.256Z,15.33
2019-02-04T15:14:05.557Z,14.27
2019-02-04T15:16:42.465Z,11.23
2019-02-04T15:19:26.930Z,13.53
2019-02-04T15:22:19.443Z,17.20
2019-02-04T15:25:17.235Z,11.80
2019-02-04T15:28:02.364Z,15.63
2019-02-04T15:30:43.787Z,18.50
2019-02-04T15:33:34.711Z,8.97
2019-02-04T15:36:25.383Z,11.63
2019-02-04T15:38:58.131Z,12.53
2019-02-04T15:41:40.018Z,13.60
2019-02-04T15:44:32.532Z,16.77
2019-02-04T15:47:08.251Z,10.83
2019-02-04T15:49:55.670Z,12.47
2019-02-04T15:52:26.789Z,15.00
2019-02-04T15:54:56.789Z,16.30
2019-02-04T15:57:26.256Z,12.23
2019-02-04T15:59:55.829Z,12.53
2019-02-04T16:02:25.573Z,10.63
2019-02-04T16:04:55.132Z,12.43
2019-02-04T16:07:24.621Z,13.50
2019-02-04T16:09:54.111Z,11.00
2019-02-04T16:12:23.613Z,11.70
2019-02-04T16:14:53.284Z,17.07
2019-02-04T16:17:22.762Z,12.57
2019-02-04T16:19:53.505Z,14.90
2019-02-04T16:22:23.150Z,10.77
2019-02-04T16:24:53.103Z,13.20
2019-02-04T16:27:22.668Z,13.60
2019-02-04T16:29:52.133Z,11.90
2019-02-04T16:32:21.661Z,12.80
2019-02-04T16:34:51.210Z,17.07
2019-02-04T16:37:20.682Z,14.37
2019-02-04T16:39:50.404Z,11.73
2019-02-04T16:42:19.919Z,17.03
2019-02-04T16:44:49.398Z,15.97
2019-02-04T16:47:19.054Z,12.10
2019-02-04T16:49:48.675Z,12.23
2019-02-04T16:52:18.758Z,15.20
2019-02-04T16:54:48.563Z,12.57
2019-02-04T16:57:18.139Z,13.70
2019-02-04T16:59:47.780Z,15.90
2019-02-04T17:02:17.268Z,14.20
2019-02-04T17:04:46.731Z,14.17
2019-02-04T17:07:16.358Z,14.07
2019-02-04T17:09:45.903Z,15.03
2019-02-04T17:12:15.948Z,12.90
2019-02-04T17:14:45.696Z,13.83
2019-02-04T17:17:15.309Z,15.27
2019-02-04T17:19:44.883Z,13.17
2019-02-04T17:22:14.392Z,15.23
2019-02-04T17:24:44.337Z,13.60
2019-02-04T17:27:14.254Z,18.60
2019-02-04T17:29:43.898Z,17.17
2019-02-04T17:32:13.870Z,17.17
2019-02-04T17:34:43.460Z,18.80
2019-02-04T17:37:13.452Z,21.40
2019-02-04T17:39:46.112Z,17.13
2019-02-04T17:42:15.671Z,19.93
2019-02-04T17:44:45.497Z,20.07
2019-02-04T17:47:15.076Z,23.33
2019-02-04T17:49:44.521Z,22.03
2019-02-04T17:52:14.276Z,21.20
2019-02-04T17:54:44.388Z,19.53
2019-02-04T17:57:14.275Z,20.07
2019-02-04T17:59:44.153Z,24.77
2019-02-04T18:02:13.826Z,20.57
2019-02-04T18:04:43.278Z,21.13
2019-02-04T18:07:12.777Z,23.60
2019-02-04T18:09:42.406Z,22.23
2019-02-04T18:12:12.192Z,17.37
2019-02-04T18:14:42.163Z,18.50
2019-02-04T18:17:11.884Z,19.20
2019-02-04T18:19:42.026Z,25.83
2019-02-04T18:22:11.539Z,17.53
2019-02-04T18:24:41.205Z,16.77
2019-02-04T18:27:11.028Z,19.80
2019-02-04T18:29:40.559Z,18.77
2019-02-04T18:32:10.420Z,17.97
2019-02-04T18:34:39.984Z,20.03
2019-02-04T18:37:09.731Z,22.03
2019-02-04T18:39:39.290Z,19.73
2019-02-04T18:42:08.779Z,24.47
2019-02-04T18:44:38.776Z,20.20
2019-02-04T18:47:11.118Z,17.80
2019-02-04T18:49:39.540Z,22.67
2019-02-04T18:52:09.033Z,16.43
2019-02-04T18:54:38.884Z,15.80
2019-02-04T18:57:08.435Z,16.17
2019-02-04T18:59:38.172Z,17.50
2019-02-04T19:02:07.755Z,18.70
2019-02-04T19:04:37.310Z,17.77
2019-02-04T19:07:07.447Z,15.37
2019-02-04T19:09:37.068Z,19.00
2019-02-04T19:12:06.827Z,15.37
2019-02-04T19:14:36.525Z,16.87
2019-02-04T19:17:06.035Z,17.03
2019-02-04T19:19:35.496Z,12.93
2019-02-04T19:22:04.977Z,16.43
2019-02-04T19:24:34.656Z,17.50
2019-02-04T19:27:04.356Z,18.77
2019-02-04T19:29:34.431Z,13.23
2019-02-04T19:32:04.343Z,19.13
2019-02-04T19:34:34.427Z,13.33
2019-02-04T19:37:04.026Z,14.73
2019-02-04T19:39:33.785Z,17.17
2019-02-04T19:42:03.423Z,14.80
2019-02-04T19:44:33.347Z,20.33
2019-02-04T19:47:03.110Z,17.67
2019-02-04T19:49:32.696Z,17.67
2019-02-04T19:52:02.392Z,14.77
2019-02-04T19:54:32.001Z,20.57
2019-02-04T19:57:02.002Z,18.83
2019-02-04T19:59:33.326Z,17.93
2019-02-04T20:02:02.775Z,25.07
2019-02-04T20:04:32.332Z,22.70
2019-02-04T20:07:02.271Z,23.13
2019-02-04T20:09:33.526Z,19.67
2019-02-04T20:12:03.274Z,24.60
2019-02-04T20:14:32.883Z,20.27
2019-02-04T20:17:02.771Z,28.03
2019-02-04T20:19:32.522Z,27.73
2019-02-04T20:22:02.170Z,23.30
2019-02-04T20:24:33.587Z,24.70
2019-02-04T20:27:03.208Z,32.13
2019-02-04T20:29:33.054Z,22.70
2019-02-04T20:32:03.163Z,29.67
2019-02-04T20:34:32.906Z,28.00
2019-02-04T20:37:02.419Z,26.97
2019-02-04T20:39:32.015Z,26.80
2019-02-04T20:42:01.581Z,32.20
2019-02-04T20:44:31.179Z,32.03
2019-02-04T20:47:00.774Z,29.23
2019-02-04T20:49:30.370Z,29.27
2019-02-04T20:51:59.900Z,34.20
2019-02-04T20:54:29.417Z,38.83
2019-02-04T20:56:59.083Z,32.43
2019-02-04T20:59:28.661Z,31.90
2019-02-04T21:01:58.272Z,32.83
2019-02-04T21:04:27.827Z,38.33
2019-02-04T21:06:57.352Z,39.10
2019-02-04T21:09:27.223Z,38.77
2019-02-04T21:11:56.847Z,36.27
2019-02-04T21:14:26.479Z,42.27
2019-02-04T21:16:56.190Z,36.30
2019-02-04T21:19:25.783Z,37.20
2019-02-04T21:21:55.315Z,39.13
2019-02-04T21:24:25.414Z,42.47
2019-02-04T21:26:54.994Z,38.57
2019-02-04T21:29:24.647Z,42.70
2019-02-04T21:31:54.182Z,41.67
2019-02-04T21:34:23.699Z,39.77
2019-02-04T21:36:53.232Z,42.90
2019-02-04T21:39:23.070Z,40.00
2019-02-04T21:41:52.617Z,44.40
2019-02-04T21:44:22.159Z,40.97
2019-02-04T21:46:51.719Z,54.70
2019-02-04T21:49:21.508Z,37.20
2019-02-04T21:51:51.007Z,36.17
2019-02-04T21:54:20.577Z,44.77
2019-02-04T21:56:50.052Z,48.13
2019-02-04T21:59:19.786Z,42.03
2019-02-04T22:01:49.267Z,44.50
2019-02-04T22:04:18.869Z,42.70
2019-02-04T22:06:48.362Z,46.73
2019-02-04T22:09:18.143Z,46.00
2019-02-04T22:11:47.654Z,38.73
2019-02-04T22:14:17.604Z,38.60
2019-02-04T22:16:47.154Z,43.63
2019-02-04T22:19:21.239Z,41.27
2019-02-04T22:21:50.808Z,38.00
2019-02-04T22:24:20.349Z,40.30
2019-02-04T22:26:49.901Z,40.03
2019-02-04T22:29:19.888Z,39.40
2019-02-04T22:31:49.428Z,35.60
2019-02-04T22:34:19.481Z,39.23
2019-02-04T22:36:49.087Z,39.67
2019-02-04T22:39:18.723Z,35.00
2019-02-04T22:41:48.302Z,39.87
2019-02-04T22:44:17.792Z,43.53
2019-02-04T22:46:47.415Z,35.63
2019-02-04T22:49:17.049Z,31.50
2019-02-04T22:51:46.544Z,35.23
2019-02-04T22:54:17.055Z,33.97
2019-02-04T22:56:46.601Z,32.77
2019-02-04T22:59:16.117Z,34.80
2019-02-04T23:01:46.274Z,37.97
2019-02-04T23:04:15.885Z,31.83
2019-02-04T23:06:45.620Z,35.43
2019-02-04T23:09:15.220Z,33.07
2019-02-04T23:11:44.828Z,34.00
2019-02-04T23:14:14.359Z,32.13
2019-02-04T23:16:43.840Z,33.87
2019-02-04T23:19:13.338Z,30.70
2019-02-04T23:21:42.960Z,38.80
2019-02-04T23:24:12.719Z,32.27
2019-02-04T23:26:42.393Z,36.60
2019-02-04T23:29:11.861Z,32.80
2019-02-04T23:31:41.402Z,32.33
2019-02-04T23:34:10.886Z,34.40
2019-02-04T23:36:40.460Z,34.23
2019-02-04T23:39:10.011Z,35.07
2019-02-04T23:41:39.617Z,35.10
2019-02-04T23:44:09.276Z,37.03
2019-02-04T23:46:38.759Z,33.93
2019-02-04T23:49:08.801Z,32.90
2019-02-04T23:51:38.376Z,38.43
2019-02-04T23:54:07.851Z,34.77
2019-02-04T23:56:37.443Z,36.27
2019-02-04T23:59:07.046Z,32.00
